Weather at Foothills Hospital McCaig Tower Helipad

Public forecast

Using degrees Celsius for public forecast. Weather courtesy of forecast.io.

Closest aviation weather report (METAR) to Foothills Hospital McCaig Tower Helipad

Closest report is Calgary International Airport, 5.2 nm (9.7 km) NE. Retrieved 2020/10/26 17:00 UTC (35 minutes ago):

CYYC 261700Z 34005KT 40SM OVC064 01/M07 A3005 RMK SC8 SLP227

Closest aviation forecast (TAF) to Foothills Hospital McCaig Tower Helipad

Closest forecast is Calgary International Airport, 5.2 nm (9.7 km) NE. Retrieved 2020/10/26 15:40 UTC (2 hours ago):

TAF CYYC 261438Z 2615/2712 33008KT P6SM BKN080 BECMG 2619/2621 23010KT BECMG 2702/2704 25012G22KT FM270900 27020G30KT P6SM FEW080 RMK NXT FCST BY 261800Z